sensor_id;sensor_type;location;lat;lon;timestamp;pressure;altitude;pressure_sealevel;temperature;humidity
56568;BME280;42456;49.956;20.004;2022-11-09T00:00:33;98474.14;;;3.13;79.58
56568;BME280;42456;49.956;20.004;2022-11-09T00:03:00;98485.56;;;3.11;79.54
56568;BME280;42456;49.956;20.004;2022-11-09T00:05:26;98484.79;;;3.08;79.64
56568;BME280;42456;49.956;20.004;2022-11-09T00:07:52;98487.20;;;3.07;79.73
56568;BME280;42456;49.956;20.004;2022-11-09T00:10:19;98486.14;;;3.05;79.86
56568;BME280;42456;49.956;20.004;2022-11-09T00:12:45;98489.88;;;3.04;79.88
56568;BME280;42456;49.956;20.004;2022-11-09T00:15:11;98494.14;;;3.03;79.94
56568;BME280;42456;49.956;20.004;2022-11-09T00:17:38;98491.75;;;2.99;79.63
56568;BME280;42456;49.956;20.004;2022-11-09T00:20:04;98485.16;;;2.94;79.17
56568;BME280;42456;49.956;20.004;2022-11-09T00:22:31;98481.98;;;2.89;79.18
56568;BME280;42456;49.956;20.004;2022-11-09T00:24:57;98489.17;;;2.86;79.33
56568;BME280;42456;49.956;20.004;2022-11-09T00:27:24;98489.97;;;2.84;79.61
56568;BME280;42456;49.956;20.004;2022-11-09T00:29:50;98485.20;;;2.81;79.64
56568;BME280;42456;49.956;20.004;2022-11-09T00:32:16;98481.25;;;2.79;79.88
56568;BME280;42456;49.956;20.004;2022-11-09T00:34:43;98477.25;;;2.76;79.54
56568;BME280;42456;49.956;20.004;2022-11-09T00:37:09;98482.86;;;2.72;79.34
56568;BME280;42456;49.956;20.004;2022-11-09T00:39:35;98486.06;;;2.69;79.45
56568;BME280;42456;49.956;20.004;2022-11-09T00:42:02;98480.48;;;2.66;79.46
56568;BME280;42456;49.956;20.004;2022-11-09T00:44:28;98489.00;;;2.63;79.51
56568;BME280;42456;49.956;20.004;2022-11-09T00:46:54;98481.30;;;2.61;79.69
56568;BME280;42456;49.956;20.004;2022-11-09T00:49:20;98485.56;;;2.60;79.84
56568;BME280;42456;49.956;20.004;2022-11-09T00:51:47;98486.64;;;2.59;79.79
56568;BME280;42456;49.956;20.004;2022-11-09T00:54:14;98487.98;;;2.56;79.71
56568;BME280;42456;49.956;20.004;2022-11-09T00:56:42;98482.70;;;2.54;79.79
56568;BME280;42456;49.956;20.004;2022-11-09T00:59:09;98479.76;;;2.53;80.08
56568;BME280;42456;49.956;20.004;2022-11-09T01:01:36;98483.73;;;2.53;80.16
56568;BME280;42456;49.956;20.004;2022-11-09T01:04:02;98490.64;;;2.51;79.94
56568;BME280;42456;49.956;20.004;2022-11-09T01:06:29;98488.02;;;2.49;79.88
56568;BME280;42456;49.956;20.004;2022-11-09T01:08:57;98490.13;;;2.47;80.03
56568;BME280;42456;49.956;20.004;2022-11-09T01:11:23;98493.86;;;2.46;80.21
56568;BME280;42456;49.956;20.004;2022-11-09T01:13:49;98487.50;;;2.44;80.00
56568;BME280;42456;49.956;20.004;2022-11-09T01:16:18;98489.36;;;2.41;79.90
56568;BME280;42456;49.956;20.004;2022-11-09T01:18:46;98483.27;;;2.38;79.86
56568;BME280;42456;49.956;20.004;2022-11-09T01:21:14;98484.61;;;2.36;79.84
56568;BME280;42456;49.956;20.004;2022-11-09T01:23:41;98484.35;;;2.32;79.85
56568;BME280;42456;49.956;20.004;2022-11-09T01:26:10;98484.63;;;2.31;80.30
56568;BME280;42456;49.956;20.004;2022-11-09T01:28:37;98477.73;;;2.30;80.47
56568;BME280;42456;49.956;20.004;2022-11-09T01:31:08;98475.06;;;2.27;80.35
56568;BME280;42456;49.956;20.004;2022-11-09T01:33:37;98473.23;;;2.25;80.45
56568;BME280;42456;49.956;20.004;2022-11-09T01:36:13;98474.81;;;2.21;80.27
56568;BME280;42456;49.956;20.004;2022-11-09T01:38:41;98470.32;;;2.17;80.00
56568;BME280;42456;49.956;20.004;2022-11-09T01:41:27;98471.41;;;2.13;79.95
56568;BME280;42456;49.956;20.004;2022-11-09T01:46:35;98464.78;;;2.08;80.26
56568;BME280;42456;49.956;20.004;2022-11-09T01:49:12;98465.05;;;2.07;80.45
56568;BME280;42456;49.956;20.004;2022-11-09T01:51:50;98458.17;;;2.06;80.65
56568;BME280;42456;49.956;20.004;2022-11-09T01:54:21;98457.88;;;2.05;80.64
56568;BME280;42456;49.956;20.004;2022-11-09T01:56:51;98450.75;;;2.03;80.59
56568;BME280;42456;49.956;20.004;2022-11-09T01:59:23;98455.77;;;2.02;80.63
56568;BME280;42456;49.956;20.004;2022-11-09T02:01:52;98450.73;;;2.00;80.72
56568;BME280;42456;49.956;20.004;2022-11-09T02:04:25;98441.47;;;1.98;80.72
56568;BME280;42456;49.956;20.004;2022-11-09T02:06:54;98443.31;;;1.97;80.77
56568;BME280;42456;49.956;20.004;2022-11-09T02:09:29;98444.13;;;1.95;80.72
56568;BME280;42456;49.956;20.004;2022-11-09T02:12:08;98442.79;;;1.92;80.78
56568;BME280;42456;49.956;20.004;2022-11-09T02:14:36;98446.25;;;1.93;80.95
56568;BME280;42456;49.956;20.004;2022-11-09T02:17:04;98446.52;;;1.91;80.95
56568;BME280;42456;49.956;20.004;2022-11-09T02:19:31;98447.59;;;1.90;80.81
56568;BME280;42456;49.956;20.004;2022-11-09T02:21:57;98442.55;;;1.89;80.89
56568;BME280;42456;49.956;20.004;2022-11-09T02:24:24;98448.63;;;1.89;81.01
56568;BME280;42456;49.956;20.004;2022-11-09T02:26:51;98449.70;;;1.88;80.96
56568;BME280;42456;49.956;20.004;2022-11-09T02:29:40;98447.84;;;1.86;80.86
56568;BME280;42456;49.956;20.004;2022-11-09T02:32:15;98446.53;;;1.84;80.78
56568;BME280;42456;49.956;20.004;2022-11-09T02:34:38;98439.11;;;1.81;80.62
56568;BME280;42456;49.956;20.004;2022-11-09T02:37:05;98443.63;;;1.78;80.81
56568;BME280;42456;49.956;20.004;2022-11-09T02:39:31;98445.47;;;1.77;81.13
56568;BME280;42456;49.956;20.004;2022-11-09T02:42:09;98447.34;;;1.77;81.23
56568;BME280;42456;49.956;20.004;2022-11-09T02:44:45;98443.38;;;1.77;81.27
56568;BME280;42456;49.956;20.004;2022-11-09T02:47:13;98444.97;;;1.75;81.17
56568;BME280;42456;49.956;20.004;2022-11-09T02:49:39;98441.25;;;1.74;81.13
56568;BME280;42456;49.956;20.004;2022-11-09T02:52:06;98439.64;;;1.73;81.24
56568;BME280;42456;49.956;20.004;2022-11-09T02:54:32;98440.20;;;1.72;81.46
56568;BME280;42456;49.956;20.004;2022-11-09T02:56:58;98440.72;;;1.72;81.67
56568;BME280;42456;49.956;20.004;2022-11-09T02:59:24;98445.50;;;1.72;81.65
56568;BME280;42456;49.956;20.004;2022-11-09T03:01:51;98439.39;;;1.72;81.42
56568;BME280;42456;49.956;20.004;2022-11-09T03:04:17;98430.39;;;1.68;81.28
56568;BME280;42456;49.956;20.004;2022-11-09T03:06:43;98426.42;;;1.68;81.53
56568;BME280;42456;49.956;20.004;2022-11-09T03:09:11;98427.73;;;1.68;81.77
56568;BME280;42456;49.956;20.004;2022-11-09T03:11:38;98437.00;;;1.65;81.57
56568;BME280;42456;49.956;20.004;2022-11-09T03:14:06;98444.72;;;1.62;81.43
56568;BME280;42456;49.956;20.004;2022-11-09T03:16:39;98443.12;;;1.58;81.50
56568;BME280;42456;49.956;20.004;2022-11-09T03:19:03;98444.70;;;1.57;81.57
56568;BME280;42456;49.956;20.004;2022-11-09T03:21:29;98444.72;;;1.54;81.43
56568;BME280;42456;49.956;20.004;2022-11-09T03:23:56;98450.80;;;1.52;81.24
56568;BME280;42456;49.956;20.004;2022-11-09T03:26:22;98450.27;;;1.50;81.31
56568;BME280;42456;49.956;20.004;2022-11-09T03:28:49;98443.39;;;1.49;81.36
56568;BME280;42456;49.956;20.004;2022-11-09T03:31:15;98444.17;;;1.47;81.24
56568;BME280;42456;49.956;20.004;2022-11-09T03:33:41;98442.34;;;1.45;81.25
56568;BME280;42456;49.956;20.004;2022-11-09T03:36:08;98446.58;;;1.44;81.50
56568;BME280;42456;49.956;20.004;2022-11-09T03:38:34;98440.20;;;1.45;81.58
56568;BME280;42456;49.956;20.004;2022-11-09T03:41:01;98436.50;;;1.43;81.50
56568;BME280;42456;49.956;20.004;2022-11-09T03:43:28;98434.37;;;1.43;81.66
56568;BME280;42456;49.956;20.004;2022-11-09T03:45:55;98431.45;;;1.44;81.99
56568;BME280;42456;49.956;20.004;2022-11-09T03:48:22;98426.70;;;1.44;82.08
56568;BME280;42456;49.956;20.004;2022-11-09T03:50:49;98431.45;;;1.44;81.92
56568;BME280;42456;49.956;20.004;2022-11-09T03:53:15;98430.95;;;1.42;81.75
56568;BME280;42456;49.956;20.004;2022-11-09T03:55:41;98428.56;;;1.41;81.70
56568;BME280;42456;49.956;20.004;2022-11-09T03:58:09;98425.38;;;1.39;81.83
56568;BME280;42456;49.956;20.004;2022-11-09T04:00:37;98421.14;;;1.38;81.86
56568;BME280;42456;49.956;20.004;2022-11-09T04:03:04;98420.60;;;1.36;81.71
56568;BME280;42456;49.956;20.004;2022-11-09T04:05:30;98422.19;;;1.34;81.66
56568;BME280;42456;49.956;20.004;2022-11-09T04:07:57;98425.11;;;1.33;81.63
56568;BME280;42456;49.956;20.004;2022-11-09T04:10:25;98425.89;;;1.31;81.61
56568;BME280;42456;49.956;20.004;2022-11-09T04:12:52;98423.51;;;1.29;81.68
56568;BME280;42456;49.956;20.004;2022-11-09T04:15:18;98427.23;;;1.26;81.50
56568;BME280;42456;49.956;20.004;2022-11-09T04:17:53;98426.17;;;1.24;81.47
56568;BME280;42456;49.956;20.004;2022-11-09T04:20:20;98421.92;;;1.21;81.66
56568;BME280;42456;49.956;20.004;2022-11-09T04:22:55;98417.15;;;1.20;81.92
56568;BME280;42456;49.956;20.004;2022-11-09T04:25:23;98420.60;;;1.21;82.00
56568;BME280;42456;49.956;20.004;2022-11-09T04:27:57;98413.98;;;1.21;82.04
56568;BME280;42456;49.956;20.004;2022-11-09T04:30:25;98417.70;;;1.20;82.14
56568;BME280;42456;49.956;20.004;2022-11-09T04:32:56;98413.17;;;1.20;82.09
56568;BME280;42456;49.956;20.004;2022-11-09T04:35:24;98416.09;;;1.19;82.11
56568;BME280;42456;49.956;20.004;2022-11-09T04:38:03;98417.41;;;1.19;82.21
56568;BME280;42456;49.956;20.004;2022-11-09T04:40:32;98416.09;;;1.19;82.27
56568;BME280;42456;49.956;20.004;2022-11-09T04:43:05;98415.58;;;1.17;82.35
56568;BME280;42456;49.956;20.004;2022-11-09T04:45:29;98417.97;;;1.18;82.39
56568;BME280;42456;49.956;20.004;2022-11-09T04:47:58;98418.23;;;1.17;82.32
56568;BME280;42456;49.956;20.004;2022-11-09T04:50:26;98416.36;;;1.15;82.22
56568;BME280;42456;49.956;20.004;2022-11-09T04:52:53;98420.59;;;1.13;82.09
56568;BME280;42456;49.956;20.004;2022-11-09T04:55:19;98422.70;;;1.11;82.09
56568;BME280;42456;49.956;20.004;2022-11-09T04:57:45;98421.13;;;1.10;82.08
56568;BME280;42456;49.956;20.004;2022-11-09T05:00:12;98417.94;;;1.08;82.09
56568;BME280;42456;49.956;20.004;2022-11-09T05:02:38;98417.68;;;1.07;82.19
56568;BME280;42456;49.956;20.004;2022-11-09T05:05:05;98419.00;;;1.07;82.25
56568;BME280;42456;49.956;20.004;2022-11-09T05:07:32;98418.20;;;1.07;82.19
56568;BME280;42456;49.956;20.004;2022-11-09T05:09:58;98417.94;;;1.06;82.08
56568;BME280;42456;49.956;20.004;2022-11-09T05:12:25;98406.81;;;1.04;81.99
56568;BME280;42456;49.956;20.004;2022-11-09T05:14:51;98411.59;;;1.02;82.01
56568;BME280;42456;49.956;20.004;2022-11-09T05:17:17;98411.31;;;1.01;82.20
56568;BME280;42456;49.956;20.004;2022-11-09T05:19:44;98407.89;;;1.00;82.35
56568;BME280;42456;49.956;20.004;2022-11-09T05:22:10;98408.14;;;1.01;82.44
56568;BME280;42456;49.956;20.004;2022-11-09T05:24:50;98411.05;;;1.00;82.32
56568;BME280;42456;49.956;20.004;2022-11-09T05:27:16;98412.12;;;0.99;82.16
56568;BME280;42456;49.956;20.004;2022-11-09T05:29:43;98411.06;;;0.97;82.11
56568;BME280;42456;49.956;20.004;2022-11-09T05:32:09;98408.67;;;0.96;82.12
56568;BME280;42456;49.956;20.004;2022-11-09T05:34:36;98411.33;;;0.96;82.27
56568;BME280;42456;49.956;20.004;2022-11-09T05:37:02;98415.03;;;0.97;82.45
56568;BME280;42456;49.956;20.004;2022-11-09T05:39:28;98404.70;;;0.98;82.52
56568;BME280;42456;49.956;20.004;2022-11-09T05:41:55;98411.84;;;0.98;82.33
56568;BME280;42456;49.956;20.004;2022-11-09T05:44:21;98413.71;;;0.97;82.30
56568;BME280;42456;49.956;20.004;2022-11-09T05:46:47;98415.03;;;0.97;82.37
56568;BME280;42456;49.956;20.004;2022-11-09T05:49:14;98419.00;;;1.00;82.47
56568;BME280;42456;49.956;20.004;2022-11-09T05:51:40;98409.73;;;1.00;82.55
56568;BME280;42456;49.956;20.004;2022-11-09T05:54:07;98408.14;;;1.01;82.43
56568;BME280;42456;49.956;20.004;2022-11-09T05:56:33;98415.30;;;1.03;82.41
56568;BME280;42456;49.956;20.004;2022-11-09T05:59:00;98420.60;;;1.03;82.42
56568;BME280;42456;49.956;20.004;2022-11-09T06:01:26;98420.84;;;1.07;82.46
56568;BME280;42456;49.956;20.004;2022-11-09T06:03:53;98424.56;;;1.06;82.32
56568;BME280;42456;49.956;20.004;2022-11-09T06:06:20;98423.78;;;1.08;82.26
56568;BME280;42456;49.956;20.004;2022-11-09T06:08:46;98420.32;;;1.10;82.35
56568;BME280;42456;49.956;20.004;2022-11-09T06:11:12;98422.99;;;1.12;82.58
56568;BME280;42456;49.956;20.004;2022-11-09T06:13:39;98422.98;;;1.17;82.75
56568;BME280;42456;49.956;20.004;2022-11-09T06:16:05;98429.09;;;1.23;82.97
56568;BME280;42456;49.956;20.004;2022-11-09T06:18:34;98428.30;;;1.27;83.01
56568;BME280;42456;49.956;20.004;2022-11-09T06:21:03;98422.47;;;1.30;82.91
56568;BME280;42456;49.956;20.004;2022-11-09T06:23:30;98424.84;;;1.34;82.82
56568;BME280;42456;49.956;20.004;2022-11-09T06:26:05;98429.09;;;1.38;82.84
56568;BME280;42456;49.956;20.004;2022-11-09T06:28:34;98433.84;;;1.43;83.05
56568;BME280;42456;49.956;20.004;2022-11-09T06:31:03;98428.29;;;1.50;83.08
56568;BME280;42456;49.956;20.004;2022-11-09T06:33:31;98438.63;;;1.59;83.04
56568;BME280;42456;49.956;20.004;2022-11-09T06:35:59;98438.59;;;1.69;83.08
56568;BME280;42456;49.956;20.004;2022-11-09T06:38:26;98440.17;;;1.82;83.20
56568;BME280;42456;49.956;20.004;2022-11-09T06:40:54;98437.48;;;1.98;83.35
56568;BME280;42456;49.956;20.004;2022-11-09T06:43:23;98441.67;;;2.14;83.49
56568;BME280;42456;49.956;20.004;2022-11-09T06:45:50;98443.51;;;2.28;83.57
56568;BME280;42456;49.956;20.004;2022-11-09T06:48:17;98435.47;;;2.46;83.59
56568;BME280;42456;49.956;20.004;2022-11-09T06:50:43;98434.84;;;2.61;83.60
56568;BME280;42456;49.956;20.004;2022-11-09T06:53:12;98434.48;;;2.78;83.51
56568;BME280;42456;49.956;20.004;2022-11-09T06:55:39;98435.48;;;2.92;83.40
56568;BME280;42456;49.956;20.004;2022-11-09T06:58:08;98438.04;;;3.07;83.28
56568;BME280;42456;49.956;20.004;2022-11-09T07:00:41;98432.90;;;3.20;83.15
56568;BME280;42456;49.956;20.004;2022-11-09T07:03:13;98444.22;;;3.33;83.05
56568;BME280;42456;49.956;20.004;2022-11-09T07:05:40;98438.01;;;3.45;83.01
56568;BME280;42456;49.956;20.004;2022-11-09T07:08:07;98437.91;;;3.58;82.87
56568;BME280;42456;49.956;20.004;2022-11-09T07:10:34;98432.49;;;3.68;82.68
56568;BME280;42456;49.956;20.004;2022-11-09T07:13:00;98430.53;;;3.78;82.90
56568;BME280;42456;49.956;20.004;2022-11-09T07:15:28;98433.36;;;3.89;82.77
56568;BME280;42456;49.956;20.004;2022-11-09T07:17:58;98432.97;;;4.01;82.57
56568;BME280;42456;49.956;20.004;2022-11-09T07:20:26;98433.94;;;4.10;82.64
56568;BME280;42456;49.956;20.004;2022-11-09T07:22:53;98439.17;;;4.18;82.57
56568;BME280;42456;49.956;20.004;2022-11-09T07:25:19;98441.75;;;4.28;82.54
56568;BME280;42456;49.956;20.004;2022-11-09T07:27:46;98439.00;;;4.35;82.52
56568;BME280;42456;49.956;20.004;2022-11-09T07:30:12;98441.00;;;4.46;82.65
56568;BME280;42456;49.956;20.004;2022-11-09T07:32:39;98435.55;;;4.56;82.85
56568;BME280;42456;49.956;20.004;2022-11-09T07:35:07;98440.67;;;4.71;83.12
56568;BME280;42456;49.956;20.004;2022-11-09T07:37:34;98441.28;;;4.86;83.25
56568;BME280;42456;49.956;20.004;2022-11-09T07:40:01;98430.94;;;5.01;83.39
56568;BME280;42456;49.956;20.004;2022-11-09T07:42:27;98430.95;;;5.17;83.36
56568;BME280;42456;49.956;20.004;2022-11-09T07:44:54;98432.34;;;5.30;83.28
56568;BME280;42456;49.956;20.004;2022-11-09T07:47:20;98430.53;;;5.44;83.17
56568;BME280;42456;49.956;20.004;2022-11-09T07:49:46;98437.73;;;5.60;83.20
56568;BME280;42456;49.956;20.004;2022-11-09T07:52:13;98431.36;;;5.74;83.26
56568;BME280;42456;49.956;20.004;2022-11-09T07:54:39;98436.70;;;5.91;83.18
56568;BME280;42456;49.956;20.004;2022-11-09T07:57:06;98424.95;;;6.05;83.06
56568;BME280;42456;49.956;20.004;2022-11-09T07:59:32;98431.31;;;6.23;83.15
56568;BME280;42456;49.956;20.004;2022-11-09T08:01:58;98431.76;;;6.41;83.25
56568;BME280;42456;49.956;20.004;2022-11-09T08:04:25;98431.09;;;6.60;83.28
56568;BME280;42456;49.956;20.004;2022-11-09T08:06:55;98423.00;;;6.76;83.16
56568;BME280;42456;49.956;20.004;2022-11-09T08:09:21;98426.67;;;6.91;82.97
56568;BME280;42456;49.956;20.004;2022-11-09T08:11:48;98416.52;;;7.04;82.89
56568;BME280;42456;49.956;20.004;2022-11-09T08:14:14;98418.11;;;7.16;82.73
56568;BME280;42456;49.956;20.004;2022-11-09T08:16:40;98410.27;;;7.30;82.76
56568;BME280;42456;49.956;20.004;2022-11-09T08:19:06;98419.19;;;7.48;82.87
56568;BME280;42456;49.956;20.004;2022-11-09T08:21:36;98422.00;;;7.65;83.02
56568;BME280;42456;49.956;20.004;2022-11-09T08:24:03;98411.13;;;7.81;82.99
56568;BME280;42456;49.956;20.004;2022-11-09T08:26:30;98408.06;;;7.96;82.91
56568;BME280;42456;49.956;20.004;2022-11-09T08:28:57;98413.02;;;8.11;82.94
56568;BME280;42456;49.956;20.004;2022-11-09T08:31:23;98415.00;;;8.28;82.78
56568;BME280;42456;49.956;20.004;2022-11-09T08:33:49;98413.02;;;8.42;82.72
56568;BME280;42456;49.956;20.004;2022-11-09T08:36:17;98413.13;;;8.56;82.83
56568;BME280;42456;49.956;20.004;2022-11-09T08:38:44;98413.00;;;8.70;82.66
56568;BME280;42456;49.956;20.004;2022-11-09T08:41:11;98410.67;;;8.85;82.42
56568;BME280;42456;49.956;20.004;2022-11-09T08:43:38;98404.91;;;8.98;82.56
56568;BME280;42456;49.956;20.004;2022-11-09T08:46:04;98402.55;;;9.13;82.35
56568;BME280;42456;49.956;20.004;2022-11-09T08:48:31;98401.59;;;9.26;82.34
56568;BME280;42456;49.956;20.004;2022-11-09T08:50:58;98399.86;;;9.39;82.14
56568;BME280;42456;49.956;20.004;2022-11-09T08:53:26;98399.20;;;9.50;82.04
56568;BME280;42456;49.956;20.004;2022-11-09T08:55:53;98402.59;;;9.62;81.79
56568;BME280;42456;49.956;20.004;2022-11-09T08:58:20;98397.11;;;9.73;81.51
56568;BME280;42456;49.956;20.004;2022-11-09T09:00:46;98395.66;;;9.84;81.36
56568;BME280;42456;49.956;20.004;2022-11-09T09:03:13;98403.05;;;9.96;80.88
56568;BME280;42456;49.956;20.004;2022-11-09T09:05:39;98401.63;;;10.07;80.58
56568;BME280;42456;49.956;20.004;2022-11-09T09:08:06;98405.55;;;10.18;80.75
56568;BME280;42456;49.956;20.004;2022-11-09T09:10:33;98398.91;;;10.30;80.19
56568;BME280;42456;49.956;20.004;2022-11-09T09:13:00;98403.30;;;10.43;79.84
56568;BME280;42456;49.956;20.004;2022-11-09T09:15:27;98403.39;;;10.55;79.85
56568;BME280;42456;49.956;20.004;2022-11-09T09:17:54;98392.72;;;10.67;79.84
56568;BME280;42456;49.956;20.004;2022-11-09T09:20:20;98388.44;;;10.80;79.57
56568;BME280;42456;49.956;20.004;2022-11-09T09:22:46;98390.08;;;10.93;78.63
56568;BME280;42456;49.956;20.004;2022-11-09T09:25:12;98389.27;;;11.07;78.26
56568;BME280;42456;49.956;20.004;2022-11-09T09:27:39;98388.09;;;11.23;78.08
56568;BME280;42456;49.956;20.004;2022-11-09T09:30:06;98385.59;;;11.38;77.70
56568;BME280;42456;49.956;20.004;2022-11-09T09:32:33;98388.47;;;11.54;77.00
56568;BME280;42456;49.956;20.004;2022-11-09T09:34:59;98383.03;;;11.69;76.91
56568;BME280;42456;49.956;20.004;2022-11-09T09:37:25;98380.84;;;11.83;75.83
56568;BME280;42456;49.956;20.004;2022-11-09T09:39:52;98380.74;;;11.97;74.63
56568;BME280;42456;49.956;20.004;2022-11-09T09:42:21;98384.47;;;12.11;73.98
56568;BME280;42456;49.956;20.004;2022-11-09T09:45:04;98384.94;;;12.19;73.87
56568;BME280;42456;49.956;20.004;2022-11-09T09:50:31;98375.51;;;12.37;73.62
56568;BME280;42456;49.956;20.004;2022-11-09T09:53:15;98380.56;;;12.44;73.69
56568;BME280;42456;49.956;20.004;2022-11-09T09:55:59;98375.59;;;12.52;73.49
56568;BME280;42456;49.956;20.004;2022-11-09T09:58:26;98373.14;;;12.59;73.45
56568;BME280;42456;49.956;20.004;2022-11-09T10:00:57;98370.09;;;12.67;72.91
56568;BME280;42456;49.956;20.004;2022-11-09T10:03:31;98361.64;;;12.74;72.87
56568;BME280;42456;49.956;20.004;2022-11-09T10:08:56;98352.38;;;12.93;72.07
56568;BME280;42456;49.956;20.004;2022-11-09T10:11:38;98348.08;;;13.04;71.73
56568;BME280;42456;49.956;20.004;2022-11-09T10:17:09;98355.67;;;13.27;70.75
56568;BME280;42456;49.956;20.004;2022-11-09T10:22:40;98353.45;;;13.44;70.77
56568;BME280;42456;49.956;20.004;2022-11-09T10:27:58;98361.98;;;13.68;70.08
56568;BME280;42456;49.956;20.004;2022-11-09T10:30:28;98349.80;;;13.74;70.09
56568;BME280;42456;49.956;20.004;2022-11-09T10:38:39;98351.03;;;13.76;68.84
56568;BME280;42456;49.956;20.004;2022-11-09T10:41:30;98351.94;;;13.74;68.66
56568;BME280;42456;49.956;20.004;2022-11-09T10:44:01;98354.61;;;13.80;68.88
56568;BME280;42456;49.956;20.004;2022-11-09T10:46:27;98351.77;;;13.83;68.39
56568;BME280;42456;49.956;20.004;2022-11-09T10:48:54;98351.77;;;13.83;68.39
56568;BME280;42456;49.956;20.004;2022-11-09T10:51:33;98362.47;;;13.85;68.25
56568;BME280;42456;49.956;20.004;2022-11-09T10:54:22;98361.43;;;13.90;68.15
56568;BME280;42456;49.956;20.004;2022-11-09T10:57:14;98361.43;;;13.90;68.15
56568;BME280;42456;49.956;20.004;2022-11-09T10:59:46;98352.97;;;13.91;67.93
56568;BME280;42456;49.956;20.004;2022-11-09T11:07:37;98364.92;;;14.06;67.38
56568;BME280;42456;49.956;20.004;2022-11-09T11:10:20;98362.87;;;14.09;67.33
56568;BME280;42456;49.956;20.004;2022-11-09T11:12:56;98355.27;;;14.14;67.45
56568;BME280;42456;49.956;20.004;2022-11-09T11:15:34;98364.53;;;14.13;66.52
56568;BME280;42456;49.956;20.004;2022-11-09T11:21:02;98359.26;;;14.11;66.40
56568;BME280;42456;49.956;20.004;2022-11-09T11:23:29;98363.01;;;14.06;65.99
56568;BME280;42456;49.956;20.004;2022-11-09T11:26:15;98355.10;;;14.07;66.12
56568;BME280;42456;49.956;20.004;2022-11-09T11:28:53;98361.17;;;14.10;65.34
56568;BME280;42456;49.956;20.004;2022-11-09T11:31:25;98358.81;;;14.09;65.56
56568;BME280;42456;49.956;20.004;2022-11-09T11:33:52;98347.78;;;14.08;65.41
56568;BME280;42456;49.956;20.004;2022-11-09T11:42:20;98352.70;;;14.12;65.47
56568;BME280;42456;49.956;20.004;2022-11-09T11:50:50;98352.01;;;14.15;64.66
56568;BME280;42456;49.956;20.004;2022-11-09T11:53:32;98347.95;;;14.15;64.85
56568;BME280;42456;49.956;20.004;2022-11-09T12:05:03;98355.58;;;14.19;64.35
56568;BME280;42456;49.956;20.004;2022-11-09T12:07:46;98352.31;;;14.19;64.33
56568;BME280;42456;49.956;20.004;2022-11-09T12:16:24;98347.68;;;14.26;63.64
56568;BME280;42456;49.956;20.004;2022-11-09T12:19:33;98348.33;;;14.29;63.45
56568;BME280;42456;49.956;20.004;2022-11-09T12:22:26;98335.45;;;14.32;63.28
56568;BME280;42456;49.956;20.004;2022-11-09T12:36:24;98337.71;;;14.55;62.75
56568;BME280;42456;49.956;20.004;2022-11-09T12:39:01;98337.80;;;14.58;62.46
56568;BME280;42456;49.956;20.004;2022-11-09T12:41:42;98335.89;;;14.59;61.62
56568;BME280;42456;49.956;20.004;2022-11-09T12:47:05;98333.59;;;14.61;62.04
56568;BME280;42456;49.956;20.004;2022-11-09T12:49:33;98333.59;;;14.61;62.19
56568;BME280;42456;49.956;20.004;2022-11-09T12:52:04;98333.39;;;14.60;62.55
56568;BME280;42456;49.956;20.004;2022-11-09T12:54:31;98341.72;;;14.61;62.78
56568;BME280;42456;49.956;20.004;2022-11-09T12:57:05;98334.19;;;14.60;62.23
56568;BME280;42456;49.956;20.004;2022-11-09T12:59:45;98335.09;;;14.58;61.98
56568;BME280;42456;49.956;20.004;2022-11-09T13:02:31;98342.77;;;14.56;62.50
56568;BME280;42456;49.956;20.004;2022-11-09T13:05:06;98343.56;;;14.57;62.21
56568;BME280;42456;49.956;20.004;2022-11-09T13:07:48;98346.53;;;14.52;61.45
56568;BME280;42456;49.956;20.004;2022-11-09T13:10:31;98344.67;;;14.46;61.14
56568;BME280;42456;49.956;20.004;2022-11-09T13:13:17;98350.34;;;14.41;61.58
56568;BME280;42456;49.956;20.004;2022-11-09T13:15:31;98354.11;;;14.37;61.71
56568;BME280;42456;49.956;20.004;2022-11-09T13:20:53;98357.56;;;14.28;61.57
56568;BME280;42456;49.956;20.004;2022-11-09T13:23:28;98351.41;;;14.21;61.69
56568;BME280;42456;49.956;20.004;2022-11-09T13:25:56;98358.77;;;14.15;61.46
56568;BME280;42456;49.956;20.004;2022-11-09T13:31:00;98354.59;;;14.02;61.65
56568;BME280;42456;49.956;20.004;2022-11-09T13:33:33;98364.96;;;14.00;61.62
56568;BME280;42456;49.956;20.004;2022-11-09T13:38:37;98366.56;;;13.95;61.42
56568;BME280;42456;49.956;20.004;2022-11-09T13:44:43;98364.90;;;13.90;61.63
56568;BME280;42456;49.956;20.004;2022-11-09T13:46:50;98362.13;;;13.87;61.62
56568;BME280;42456;49.956;20.004;2022-11-09T13:49:37;98372.48;;;13.85;61.67
56568;BME280;42456;49.956;20.004;2022-11-09T13:54:59;98366.56;;;13.79;61.75
56568;BME280;42456;49.956;20.004;2022-11-09T13:57:26;98364.55;;;13.76;61.88
56568;BME280;42456;49.956;20.004;2022-11-09T13:59:53;98364.66;;;13.74;62.00
56568;BME280;42456;49.956;20.004;2022-11-09T14:02:23;98358.04;;;13.71;62.24
56568;BME280;42456;49.956;20.004;2022-11-09T14:04:50;98362.23;;;13.69;62.15
56568;BME280;42456;49.956;20.004;2022-11-09T14:07:24;98364.03;;;13.65;62.10
56568;BME280;42456;49.956;20.004;2022-11-09T14:10:18;98362.02;;;13.62;62.07
56568;BME280;42456;49.956;20.004;2022-11-09T14:16:00;98353.53;;;13.54;62.14
56568;BME280;42456;49.956;20.004;2022-11-09T14:21:47;98348.73;;;13.41;62.48
56568;BME280;42456;49.956;20.004;2022-11-09T14:24:25;98344.30;;;13.21;63.04
56568;BME280;42456;49.956;20.004;2022-11-09T14:29:48;98353.89;;;13.18;63.26
56568;BME280;42456;49.956;20.004;2022-11-09T14:32:21;98354.59;;;13.09;63.41
56568;BME280;42456;49.956;20.004;2022-11-09T14:37:56;98346.65;;;12.89;64.06
56568;BME280;42456;49.956;20.004;2022-11-09T14:40:34;98351.05;;;12.81;64.35
56568;BME280;42456;49.956;20.004;2022-11-09T14:43:01;98357.14;;;12.72;64.64
56568;BME280;42456;49.956;20.004;2022-11-09T14:45:54;98356.27;;;12.62;64.83
56568;BME280;42456;49.956;20.004;2022-11-09T14:48:24;98348.87;;;12.47;65.04